CSJ4 weather

Louiseville Airport
Louiseville, Quebec, Canada

Public forecast

Using degrees Celsius for public forecast. Weather courtesy of forecast.io.

METAR (pilot weather report)

Closest report is Trois-Rivières Airport, 11.3 nm (21.0 km) NE. Retrieved 2019/07/22 11:00 UTC (48 minutes ago):

CYRQ 221100Z AUTO VRB02KT 9SM CLR 14/12 A2993 RMK SLP137

TAF (pilot weather forecast)

Closest forecast is Trois-Rivières Airport, 11.3 nm (21.0 km) NE. Retrieved 2019/07/22 08:00 UTC (4 hours ago):

TAF CYRQ 220738Z 2208/2220 36005KT P6SM SKC FM221800 20005KT P6SM BKN060 OVC100 RMK FCST BASED ON AUTO OBS. NXT FCST BY 221400Z